createdAt,value
2022-10-12T00:00:25.861Z,1.48
2022-10-12T00:02:53.365Z,2.13
2022-10-12T00:05:20.634Z,1.40
2022-10-12T00:07:49.035Z,1.73
2022-10-12T00:10:18.788Z,1.20
2022-10-12T00:12:46.719Z,1.80
2022-10-12T00:15:16.817Z,1.70
2022-10-12T00:17:47.410Z,1.92
2022-10-12T00:20:25.953Z,1.65
2022-10-12T00:22:54.212Z,1.83
2022-10-12T00:25:21.699Z,3.65
2022-10-12T00:27:49.023Z,1.77
2022-10-12T00:30:23.145Z,1.40
2022-10-12T00:32:50.462Z,1.75
2022-10-12T00:35:17.932Z,2.80
2022-10-12T00:37:49.209Z,2.03
2022-10-12T00:40:17.642Z,1.90
2022-10-12T00:42:45.348Z,1.63
2022-10-12T00:45:16.478Z,1.45
2022-10-12T00:47:54.245Z,1.70
2022-10-12T00:50:26.956Z,1.98
2022-10-12T00:52:57.966Z,1.73
2022-10-12T00:55:29.583Z,1.67
2022-10-12T00:58:00.218Z,1.83
2022-10-12T01:00:27.533Z,2.17
2022-10-12T01:02:57.856Z,1.88
2022-10-12T01:05:26.345Z,1.90
2022-10-12T01:07:58.929Z,2.00
2022-10-12T01:10:27.673Z,2.08
2022-10-12T01:12:59.328Z,1.92
2022-10-12T01:15:34.589Z,2.00
2022-10-12T01:18:10.732Z,1.90
2022-10-12T01:20:50.271Z,1.73
2022-10-12T01:23:24.434Z,2.08
2022-10-12T01:25:56.010Z,2.08
2022-10-12T01:28:44.392Z,2.03
2022-10-12T01:31:30.066Z,1.60
2022-10-12T01:34:04.876Z,3.15
2022-10-12T01:36:41.489Z,1.70
2022-10-12T01:39:32.093Z,1.98
2022-10-12T01:42:01.339Z,2.85
2022-10-12T01:44:31.053Z,1.67
2022-10-12T01:46:58.411Z,2.20
2022-10-12T01:49:35.296Z,2.00
2022-10-12T01:52:21.479Z,1.77
2022-10-12T01:55:11.227Z,2.00
2022-10-12T01:57:41.174Z,2.10
2022-10-12T02:00:21.272Z,4.75
2022-10-12T02:03:07.358Z,2.42
2022-10-12T02:05:59.900Z,2.05
2022-10-12T02:08:28.938Z,1.75
2022-10-12T02:10:59.511Z,2.20
2022-10-12T02:13:35.698Z,2.00
2022-10-12T02:16:05.804Z,2.25
2022-10-12T02:18:38.509Z,2.63
2022-10-12T02:21:31.375Z,2.30
2022-10-12T02:24:03.556Z,1.83
2022-10-12T02:26:34.251Z,1.85
2022-10-12T02:29:19.007Z,1.75
2022-10-12T02:31:47.241Z,2.03
2022-10-12T02:34:19.856Z,2.38
2022-10-12T02:36:50.738Z,2.20
2022-10-12T02:39:20.662Z,1.92
2022-10-12T02:41:57.160Z,2.35
2022-10-12T02:44:27.099Z,2.42
2022-10-12T02:47:14.684Z,2.00
2022-10-12T02:49:44.878Z,2.13
2022-10-12T02:52:13.197Z,1.80
2022-10-12T02:54:41.169Z,2.00
2022-10-12T02:57:08.662Z,2.75
2022-10-12T02:59:43.893Z,1.95
2022-10-12T03:02:16.949Z,2.15
2022-10-12T03:04:45.382Z,2.40
2022-10-12T03:07:18.619Z,2.35
2022-10-12T03:09:46.278Z,2.30
2022-10-12T03:12:19.482Z,3.03
2022-10-12T03:14:47.432Z,2.08
2022-10-12T03:17:16.466Z,2.28
2022-10-12T03:19:46.657Z,2.33
2022-10-12T03:22:16.297Z,2.45
2022-10-12T03:24:44.020Z,2.10
2022-10-12T03:27:11.283Z,2.20
2022-10-12T03:29:44.209Z,2.20
2022-10-12T03:32:11.600Z,2.78
2022-10-12T03:34:39.091Z,2.40
2022-10-12T03:37:06.380Z,3.72
2022-10-12T03:39:37.329Z,1.98
2022-10-12T03:42:04.741Z,2.67
2022-10-12T03:44:33.042Z,2.20
2022-10-12T03:47:05.335Z,2.70
2022-10-12T03:49:34.898Z,2.20
2022-10-12T03:52:02.161Z,2.28
2022-10-12T03:54:29.470Z,2.13
2022-10-12T03:56:56.960Z,1.98
2022-10-12T03:59:24.264Z,2.28
2022-10-12T04:01:52.435Z,1.70
2022-10-12T04:04:20.979Z,1.80
2022-10-12T04:06:51.250Z,2.33
2022-10-12T04:09:18.754Z,3.33
2022-10-12T04:11:49.259Z,2.20
2022-10-12T04:14:20.461Z,2.00
2022-10-12T04:16:48.617Z,2.85
2022-10-12T04:19:19.667Z,2.00
2022-10-12T04:21:48.052Z,2.55
2022-10-12T04:24:18.392Z,2.47
2022-10-12T04:26:46.363Z,2.63
2022-10-12T04:29:14.457Z,2.05
2022-10-12T04:31:42.437Z,2.30
2022-10-12T04:34:10.441Z,2.05
2022-10-12T04:36:40.225Z,1.92
2022-10-12T04:39:10.470Z,2.22
2022-10-12T04:41:40.578Z,2.60
2022-10-12T04:44:08.505Z,2.30
2022-10-12T04:46:36.683Z,2.20
2022-10-12T04:49:07.869Z,2.30
2022-10-12T04:51:35.160Z,2.83
2022-10-12T04:54:03.514Z,2.22
2022-10-12T04:56:37.449Z,3.30
2022-10-12T04:59:10.830Z,2.28
2022-10-12T05:01:41.305Z,2.55
2022-10-12T05:04:09.031Z,2.85
2022-10-12T05:06:36.472Z,2.22
2022-10-12T05:09:05.396Z,2.20
2022-10-12T05:11:33.278Z,2.08
2022-10-12T05:14:01.529Z,2.35
2022-10-12T05:16:28.922Z,2.50
2022-10-12T05:18:56.430Z,3.17
2022-10-12T05:21:23.810Z,2.50
2022-10-12T05:23:55.211Z,2.33
2022-10-12T05:26:22.509Z,2.55
2022-10-12T05:28:59.464Z,2.60
2022-10-12T05:31:26.892Z,2.40
2022-10-12T05:33:54.521Z,2.58
2022-10-12T05:36:21.857Z,2.58
2022-10-12T05:39:06.708Z,2.20
2022-10-12T05:41:35.126Z,2.47
2022-10-12T05:44:02.605Z,2.30
2022-10-12T05:46:30.017Z,2.38
2022-10-12T05:48:57.382Z,2.28
2022-10-12T05:51:29.142Z,2.88
2022-10-12T05:53:56.610Z,2.63
2022-10-12T05:56:24.072Z,2.80
2022-10-12T05:59:09.710Z,3.00
2022-10-12T06:01:38.817Z,3.10
2022-10-12T06:04:06.141Z,3.53
2022-10-12T06:06:36.076Z,3.28
2022-10-12T06:09:05.126Z,3.38
2022-10-12T06:11:36.414Z,3.60
2022-10-12T06:14:04.699Z,3.30
2022-10-12T06:16:32.258Z,3.90
2022-10-12T06:19:00.864Z,3.88
2022-10-12T06:21:33.537Z,3.78
2022-10-12T06:24:01.736Z,4.00
2022-10-12T06:26:29.944Z,3.97
2022-10-12T06:29:04.077Z,3.50
2022-10-12T06:31:35.651Z,3.80
2022-10-12T06:34:02.892Z,3.78
2022-10-12T06:36:30.459Z,3.90
2022-10-12T06:38:57.769Z,3.80
2022-10-12T06:41:25.986Z,3.55
2022-10-12T06:43:53.709Z,3.50
2022-10-12T06:46:21.273Z,3.10
2022-10-12T06:49:01.028Z,3.22
2022-10-12T06:51:28.685Z,2.78
2022-10-12T06:53:56.662Z,2.78
2022-10-12T06:56:24.139Z,2.88
2022-10-12T06:58:55.957Z,2.75
2022-10-12T07:01:23.391Z,2.78
2022-10-12T07:03:50.989Z,2.90
2022-10-12T07:06:18.332Z,2.85
2022-10-12T07:08:49.312Z,2.90
2022-10-12T07:11:17.025Z,3.03
2022-10-12T07:14:03.201Z,2.80
2022-10-12T07:16:31.270Z,3.38
2022-10-12T07:18:58.766Z,2.67
2022-10-12T07:21:26.065Z,3.25
2022-10-12T07:23:53.615Z,2.33
2022-10-12T07:26:26.988Z,2.60
2022-10-12T07:28:59.500Z,2.50
2022-10-12T07:31:27.361Z,3.53
2022-10-12T07:33:56.451Z,2.88
2022-10-12T07:36:35.599Z,2.78
2022-10-12T07:39:12.078Z,2.58
2022-10-12T07:41:42.338Z,2.33
2022-10-12T07:44:09.825Z,2.60
2022-10-12T07:46:37.527Z,2.75
2022-10-12T07:49:07.723Z,2.30
2022-10-12T07:51:39.542Z,2.38
2022-10-12T07:54:07.134Z,3.00
2022-10-12T07:56:35.070Z,2.50
2022-10-12T07:59:03.132Z,2.78
2022-10-12T08:01:32.585Z,2.80
2022-10-12T08:04:02.047Z,2.42
2022-10-12T08:06:30.627Z,2.50
2022-10-12T08:09:11.091Z,2.50
2022-10-12T08:11:50.172Z,2.30
2022-10-12T08:14:18.813Z,1.98
2022-10-12T08:16:48.320Z,2.17
2022-10-12T08:19:17.142Z,2.35
2022-10-12T08:21:47.869Z,2.05
2022-10-12T08:24:17.534Z,2.00
2022-10-12T08:26:48.362Z,2.20
2022-10-12T08:29:16.472Z,2.50
2022-10-12T08:31:50.392Z,2.25
2022-10-12T08:34:18.720Z,2.10
2022-10-12T08:36:46.686Z,2.65
2022-10-12T08:39:16.632Z,2.63
2022-10-12T08:42:07.381Z,1.80
2022-10-12T08:44:35.125Z,1.52
2022-10-12T08:47:10.108Z,1.60
2022-10-12T08:49:49.669Z,1.90
2022-10-12T08:52:39.280Z,1.20
2022-10-12T08:55:36.293Z,1.83
2022-10-12T08:58:12.000Z,1.38
2022-10-12T09:00:59.630Z,1.55
2022-10-12T09:03:40.944Z,1.27
2022-10-12T09:06:16.440Z,1.50
2022-10-12T09:08:58.339Z,1.60
2022-10-12T09:11:36.748Z,1.85
2022-10-12T09:14:30.318Z,1.25
2022-10-12T09:16:58.545Z,1.40
2022-10-12T09:19:36.115Z,1.40
2022-10-12T09:22:04.128Z,1.88
2022-10-12T09:24:40.942Z,1.80
2022-10-12T09:27:19.238Z,1.42
2022-10-12T09:30:05.494Z,1.90
2022-10-12T09:32:37.717Z,1.70
2022-10-12T09:35:08.976Z,1.48
2022-10-12T09:37:36.861Z,1.40
2022-10-12T09:40:10.865Z,1.65
2022-10-12T09:42:38.578Z,2.47
2022-10-12T09:45:20.881Z,1.50
2022-10-12T09:48:07.131Z,2.08
2022-10-12T09:50:46.121Z,1.38
2022-10-12T09:53:24.796Z,1.40
2022-10-12T09:56:03.270Z,1.52
2022-10-12T09:58:42.465Z,1.50
2022-10-12T10:01:18.027Z,1.83
2022-10-12T10:03:47.286Z,1.33
2022-10-12T10:06:17.278Z,1.20
2022-10-12T10:08:48.844Z,1.40
2022-10-12T10:11:20.378Z,1.80
2022-10-12T10:13:49.740Z,1.90
2022-10-12T10:16:20.682Z,1.60
2022-10-12T10:19:03.840Z,1.70
2022-10-12T10:21:36.424Z,1.38
2022-10-12T10:24:05.330Z,1.13
2022-10-12T10:26:54.122Z,1.75
2022-10-12T10:29:33.974Z,2.17
2022-10-12T10:32:19.346Z,1.80
2022-10-12T10:34:47.646Z,1.90
2022-10-12T10:37:21.787Z,2.28
2022-10-12T10:40:02.061Z,2.53
2022-10-12T10:42:33.166Z,2.38
2022-10-12T10:45:02.479Z,2.33
2022-10-12T10:47:30.676Z,1.85
2022-10-12T10:50:08.731Z,1.95
2022-10-12T10:52:41.923Z,3.00
2022-10-12T10:55:09.777Z,1.98
2022-10-12T10:57:41.241Z,1.98
2022-10-12T11:00:38.116Z,2.10
2022-10-12T11:03:26.101Z,2.00
2022-10-12T11:06:36.308Z,2.72
2022-10-12T11:09:25.855Z,2.83
2022-10-12T11:11:59.158Z,2.08
2022-10-12T11:14:29.903Z,2.53
2022-10-12T11:17:14.763Z,2.28
2022-10-12T11:19:45.459Z,2.17
2022-10-12T11:22:18.966Z,2.58
2022-10-12T11:25:00.632Z,3.20
2022-10-12T11:27:27.947Z,1.92
2022-10-12T11:30:19.755Z,2.08
2022-10-12T11:32:48.345Z,2.78
2022-10-12T11:35:24.538Z,2.35
2022-10-12T11:38:08.034Z,3.05
2022-10-12T11:41:30.930Z,2.90
2022-10-12T11:44:08.384Z,3.13
2022-10-12T11:46:52.015Z,2.63
2022-10-12T11:49:20.515Z,2.67
2022-10-12T11:51:49.201Z,3.30
2022-10-12T11:54:32.210Z,2.42
2022-10-12T11:57:02.256Z,3.35
2022-10-12T11:59:41.217Z,2.30
2022-10-12T12:02:12.144Z,2.60
2022-10-12T12:04:44.059Z,2.85
2022-10-12T12:07:26.905Z,2.50
2022-10-12T12:10:06.663Z,2.97
2022-10-12T12:12:34.484Z,2.88
2022-10-12T12:15:03.004Z,3.05
2022-10-12T12:17:32.352Z,2.97
2022-10-12T12:20:09.941Z,2.45
2022-10-12T12:22:40.289Z,2.50
2022-10-12T12:25:11.403Z,2.75
2022-10-12T12:27:38.937Z,3.65
2022-10-12T12:30:28.455Z,3.00
2022-10-12T12:33:09.685Z,2.42
2022-10-12T12:35:42.267Z,2.97
2022-10-12T12:38:09.544Z,3.65
2022-10-12T12:40:37.211Z,2.85
2022-10-12T12:43:21.217Z,2.90
2022-10-12T12:45:57.039Z,2.38
2022-10-12T12:48:39.579Z,3.67
2022-10-12T12:51:09.804Z,2.78
2022-10-12T12:53:39.323Z,3.83
2022-10-12T12:56:23.511Z,2.80
2022-10-12T12:59:07.374Z,2.85
2022-10-12T13:01:57.170Z,3.40
2022-10-12T13:04:43.021Z,4.90
2022-10-12T13:07:14.311Z,3.35
2022-10-12T13:09:45.888Z,2.55
2022-10-12T13:12:19.662Z,3.10
2022-10-12T13:14:58.995Z,2.40
2022-10-12T13:17:42.943Z,2.70
2022-10-12T13:20:16.320Z,2.72
2022-10-12T13:22:46.040Z,2.80
2022-10-12T13:25:17.814Z,2.47
2022-10-12T13:27:52.266Z,2.97
2022-10-12T13:30:58.160Z,2.60
2022-10-12T13:33:32.529Z,2.97
2022-10-12T13:36:08.803Z,3.28
2022-10-12T13:38:40.768Z,2.40
2022-10-12T13:41:10.755Z,2.97
2022-10-12T13:43:48.304Z,2.70
2022-10-12T13:46:36.959Z,2.58
2022-10-12T13:49:18.909Z,2.80
2022-10-12T13:51:57.148Z,2.88
2022-10-12T13:54:28.950Z,3.05
2022-10-12T13:57:01.623Z,2.95
2022-10-12T13:59:35.213Z,2.78
2022-10-12T14:02:04.655Z,2.85
2022-10-12T14:04:43.519Z,2.55
2022-10-12T14:07:21.929Z,3.10
2022-10-12T14:09:53.174Z,3.13
2022-10-12T14:12:25.329Z,2.58
2022-10-12T14:14:53.788Z,2.80
2022-10-12T14:17:21.571Z,3.25
2022-10-12T14:20:04.225Z,2.28
2022-10-12T14:22:38.719Z,2.72
2022-10-12T14:25:13.041Z,2.60
2022-10-12T14:27:40.366Z,2.50
2022-10-12T14:30:29.254Z,5.35
2022-10-12T14:33:09.321Z,2.95
2022-10-12T14:35:38.782Z,2.53
2022-10-12T14:38:26.405Z,2.75
2022-10-12T14:40:55.370Z,2.50
2022-10-12T14:43:44.247Z,2.75
2022-10-12T14:46:22.254Z,3.72
2022-10-12T14:48:54.995Z,3.25
2022-10-12T14:51:23.451Z,4.03
2022-10-12T14:54:00.836Z,3.75
2022-10-12T14:56:28.559Z,2.75
2022-10-12T14:58:55.889Z,3.00
2022-10-12T15:01:26.467Z,3.55
2022-10-12T15:03:54.444Z,3.67
2022-10-12T15:06:29.518Z,2.25
2022-10-12T15:11:24.787Z,2.13
2022-10-12T15:13:52.326Z,3.03
2022-10-12T15:16:21.900Z,2.10
2022-10-12T15:18:55.316Z,3.03
2022-10-12T15:21:22.762Z,2.38
2022-10-12T15:24:09.176Z,2.90
2022-10-12T15:27:00.353Z,2.20
2022-10-12T15:29:28.988Z,2.67
2022-10-12T15:32:01.690Z,2.38
2022-10-12T15:34:30.645Z,2.00
2022-10-12T15:36:58.043Z,2.75
2022-10-12T15:39:26.228Z,2.75
2022-10-12T15:41:53.480Z,2.40
2022-10-12T15:44:20.940Z,2.45
2022-10-12T15:46:51.669Z,1.98
2022-10-12T15:49:20.447Z,2.90
2022-10-12T15:51:49.402Z,3.28
2022-10-12T15:54:17.066Z,2.90
2022-10-12T15:56:44.404Z,2.75
2022-10-12T15:59:11.915Z,2.55
2022-10-12T16:01:40.124Z,2.30
2022-10-12T16:04:07.841Z,2.38
2022-10-12T16:06:35.298Z,2.25
2022-10-12T16:09:03.362Z,2.50
2022-10-12T16:11:30.883Z,2.65
2022-10-12T16:13:58.508Z,2.60
2022-10-12T16:16:25.984Z,2.92
2022-10-12T16:18:54.135Z,3.10
2022-10-12T16:21:21.735Z,3.20
2022-10-12T16:23:49.098Z,2.60
2022-10-12T16:26:17.664Z,2.78
2022-10-12T16:29:00.485Z,2.85
2022-10-12T16:31:35.945Z,2.95
2022-10-12T16:34:03.441Z,2.97
2022-10-12T16:36:31.037Z,3.10
2022-10-12T16:39:17.584Z,4.38
2022-10-12T16:41:47.112Z,2.97
2022-10-12T16:44:14.461Z,5.78
2022-10-12T16:46:47.896Z,3.42
2022-10-12T16:49:15.440Z,3.58
2022-10-12T16:51:43.436Z,2.97
2022-10-12T16:54:13.000Z,2.58
2022-10-12T16:56:40.348Z,2.58
2022-10-12T16:59:22.350Z,2.95
2022-10-12T17:01:50.183Z,3.03
2022-10-12T17:04:27.820Z,2.95
2022-10-12T17:07:02.955Z,3.00
2022-10-12T17:11:59.203Z,3.13
2022-10-12T17:14:27.514Z,2.97
2022-10-12T17:16:57.535Z,3.13
2022-10-12T17:19:48.326Z,3.08
2022-10-12T17:22:16.820Z,2.50
2022-10-12T17:24:49.055Z,3.35
2022-10-12T17:27:17.889Z,3.20
2022-10-12T17:29:49.184Z,3.20
2022-10-12T17:32:32.868Z,3.40
2022-10-12T17:35:03.103Z,3.80
2022-10-12T17:37:47.070Z,3.50
2022-10-12T17:40:16.669Z,3.75
2022-10-12T17:42:43.942Z,3.72
2022-10-12T17:45:11.942Z,4.22
2022-10-12T17:47:40.010Z,3.42
2022-10-12T17:50:09.959Z,3.75
2022-10-12T17:52:55.942Z,3.55
2022-10-12T17:55:48.012Z,3.60
2022-10-12T17:58:16.758Z,3.55
2022-10-12T18:00:50.186Z,3.60
2022-10-12T18:03:21.077Z,3.60
2022-10-12T18:05:50.887Z,4.55
2022-10-12T18:08:20.271Z,4.78
2022-10-12T18:11:00.549Z,3.72
2022-10-12T18:13:28.984Z,4.47
2022-10-12T18:16:14.006Z,4.90
2022-10-12T18:18:53.440Z,3.83
2022-10-12T18:21:22.310Z,4.40
2022-10-12T18:24:08.611Z,4.60
2022-10-12T18:26:39.185Z,4.15
2022-10-12T18:29:10.518Z,4.40
2022-10-12T18:31:39.031Z,3.85
2022-10-12T18:34:06.382Z,3.72
2022-10-12T18:36:34.574Z,3.80
2022-10-12T18:39:03.683Z,4.18
2022-10-12T18:41:31.747Z,4.30
2022-10-12T18:43:59.702Z,3.97
2022-10-12T18:46:28.789Z,3.65
2022-10-12T18:48:56.726Z,3.78
2022-10-12T18:51:29.896Z,4.43
2022-10-12T18:53:57.466Z,4.13
2022-10-12T18:56:24.820Z,4.00
2022-10-12T18:59:11.010Z,4.55
2022-10-12T19:01:39.466Z,3.95
2022-10-12T19:04:34.126Z,4.72
2022-10-12T19:07:03.160Z,5.13
2022-10-12T19:09:31.802Z,6.00
2022-10-12T19:11:59.333Z,5.90
2022-10-12T19:14:28.530Z,5.10
2022-10-12T19:17:00.101Z,6.05
2022-10-12T19:19:30.327Z,5.72
2022-10-12T19:21:58.979Z,5.90
2022-10-12T19:24:26.331Z,5.80
2022-10-12T19:26:55.677Z,5.75
2022-10-12T19:29:23.039Z,5.90
2022-10-12T19:31:51.233Z,5.25
2022-10-12T19:34:20.444Z,5.50
2022-10-12T19:36:57.958Z,5.47
2022-10-12T19:39:25.314Z,5.38
2022-10-12T19:41:57.283Z,5.80
2022-10-12T19:44:24.879Z,5.40
2022-10-12T19:46:53.774Z,5.78
2022-10-12T19:49:21.655Z,6.20
2022-10-12T19:51:49.002Z,6.03
2022-10-12T19:54:17.337Z,5.93
2022-10-12T19:56:44.969Z,6.43
2022-10-12T19:59:31.102Z,5.05
2022-10-12T20:01:58.719Z,6.00
2022-10-12T20:04:35.256Z,5.38
2022-10-12T20:07:04.655Z,6.00
2022-10-12T20:09:35.870Z,5.63
2022-10-12T20:12:09.723Z,6.30
2022-10-12T20:14:37.283Z,6.00
2022-10-12T20:17:05.893Z,6.00
2022-10-12T20:19:34.777Z,5.10
2022-10-12T20:22:05.849Z,5.68
2022-10-12T20:24:34.881Z,5.93
2022-10-12T20:27:04.367Z,5.57
2022-10-12T20:29:32.013Z,4.90
2022-10-12T20:32:00.704Z,5.82
2022-10-12T20:34:29.154Z,5.68
2022-10-12T20:36:59.835Z,5.15
2022-10-12T20:39:27.566Z,5.57
2022-10-12T20:41:56.374Z,5.70
2022-10-12T20:44:23.765Z,4.95
2022-10-12T20:46:52.064Z,5.85
2022-10-12T20:49:19.794Z,5.07
2022-10-12T20:51:47.831Z,5.53
2022-10-12T20:54:18.784Z,6.25
2022-10-12T20:56:53.130Z,4.88
2022-10-12T20:59:20.459Z,5.57
2022-10-12T21:01:52.246Z,5.72
2022-10-12T21:04:19.882Z,4.40
2022-10-12T21:06:51.326Z,5.22
2022-10-12T21:09:19.489Z,4.68
2022-10-12T21:11:47.507Z,5.60
2022-10-12T21:14:15.466Z,4.72
2022-10-12T21:16:42.804Z,5.45
2022-10-12T21:19:13.949Z,4.82
2022-10-12T21:21:41.482Z,4.82
2022-10-12T21:24:10.256Z,5.03
2022-10-12T21:26:39.075Z,5.05
2022-10-12T21:29:09.308Z,4.88
2022-10-12T21:31:39.426Z,4.68
2022-10-12T21:34:07.734Z,5.10
2022-10-12T21:36:37.528Z,5.82
2022-10-12T21:39:23.748Z,4.72
2022-10-12T21:41:52.036Z,5.72
2022-10-12T21:44:22.859Z,5.05
2022-10-12T21:46:51.158Z,5.03
2022-10-12T21:49:20.011Z,5.05
2022-10-12T21:51:47.883Z,4.50
2022-10-12T21:54:19.112Z,4.68
2022-10-12T21:56:47.268Z,5.15
2022-10-12T21:59:22.842Z,4.88
2022-10-12T22:01:57.696Z,5.10
2022-10-12T22:04:24.999Z,5.07
2022-10-12T22:06:54.273Z,5.25
2022-10-12T22:09:24.451Z,6.07
2022-10-12T22:11:53.545Z,8.35
2022-10-12T22:14:21.651Z,5.38
2022-10-12T22:16:49.290Z,5.35
2022-10-12T22:19:19.097Z,4.75
2022-10-12T22:21:47.641Z,4.90
2022-10-12T22:24:19.775Z,5.53
2022-10-12T22:26:47.211Z,5.28
2022-10-12T22:29:19.346Z,5.30
2022-10-12T22:31:48.495Z,5.07
2022-10-12T22:34:16.404Z,5.28
2022-10-12T22:36:45.780Z,5.38
2022-10-12T22:39:15.612Z,5.22
2022-10-12T22:41:43.507Z,4.97
2022-10-12T22:44:10.971Z,5.28
2022-10-12T22:46:43.608Z,4.97
2022-10-12T22:49:11.071Z,4.70
2022-10-12T22:51:41.658Z,5.53
2022-10-12T22:54:09.903Z,5.63
2022-10-12T22:56:37.550Z,5.15
2022-10-12T22:59:09.299Z,5.40
2022-10-12T23:01:36.939Z,5.65
2022-10-12T23:04:04.410Z,5.70
2022-10-12T23:06:39.048Z,5.55
2022-10-12T23:09:09.969Z,5.45
2022-10-12T23:11:37.589Z,4.95
2022-10-12T23:14:05.115Z,5.28
2022-10-12T23:16:34.066Z,4.88
2022-10-12T23:19:08.898Z,6.47
2022-10-12T23:21:39.117Z,5.80
2022-10-12T23:24:06.595Z,5.55
2022-10-12T23:26:35.564Z,5.15
2022-10-12T23:29:09.264Z,5.50
2022-10-12T23:31:44.399Z,4.80
2022-10-12T23:34:12.139Z,5.05
2022-10-12T23:36:39.575Z,5.90
2022-10-12T23:39:08.331Z,5.47
2022-10-12T23:41:35.675Z,4.93
2022-10-12T23:44:03.080Z,5.80
2022-10-12T23:46:30.977Z,5.70
2022-10-12T23:48:58.451Z,5.20
2022-10-12T23:51:26.734Z,5.80
2022-10-12T23:53:55.451Z,5.20
2022-10-12T23:56:22.776Z,5.45
2022-10-12T23:58:50.093Z,5.78
